Time;durP1;ratioP1;P1;durP2;ratioP2;P2;SDS_P1;SDS_P2;PMS_P1;PMS_P2;Temp;Humidity;BMP_temperature;BMP_pressure;BME280_temperature;BME280_humidity;BME280_pressure;Samples;Min_cycle;Max_cycle;Signal;HPM_P1;HPM_P2
2021/10/26 00:00:01;;;;;;;;;;;;;;;;;;5033729;28;19935;-61
2021/10/26 00:02:28;;;;;;;;;;;;;;;;;;5035436;28;19925;-60
2021/10/26 00:04:55;;;;;;;;;;;;;;;;;;5028195;28;21544;-59
2021/10/26 00:07:22;;;;;;;;;;;;;;;;;;5019879;28;20559;-59
2021/10/26 00:09:49;;;;;;;;;;;;;;;;;;5021752;28;19931;-59
2021/10/26 00:12:16;;;;;;;;;;;;;;;;;;5031560;28;19932;-56
2021/10/26 00:14:43;;;;;;;;;;;;;;;;;;5036195;28;19936;-60
2021/10/26 00:17:10;;;;;;;;;;;;;;;;;;5029691;28;20482;-59
2021/10/26 00:19:37;;;;;;;;;;;;;;;;;;5029721;28;19925;-59
2021/10/26 00:22:04;;;;;;;;;;;;;;;;;;5034099;28;19928;-59
2021/10/26 00:24:31;;;;;;;;;;;;;;;;;;5027839;28;20008;-59
2021/10/26 00:26:58;;;;;;;;;;;;;;;;;;5032160;28;19925;-59
2021/10/26 00:29:25;;;;;;;;;;;;;;;;;;5032222;28;19925;-60
2021/10/26 00:31:52;;;;;;;;;;;;;;;;;;5032212;28;19925;-58
2021/10/26 00:34:19;;;;;;;;;;;;;;;;;;5029809;28;20389;-60
2021/10/26 00:36:46;;;;;;;;;;;;;;;;;;5032638;28;19933;-60
2021/10/26 00:39:12;;;;;;;;;;;;;;;;;;5026161;28;19925;-61
2021/10/26 00:41:39;;;;;;;;;;;;;;;;;;5036485;28;19925;-60
2021/10/26 00:44:06;;;;;;;;;;;;;;;;;;5030622;28;19926;-58
2021/10/26 00:46:33;;;;;;;;;;;;;;;;;;5031504;28;19929;-60
2021/10/26 00:49:01;;;;;;;;;;;;;;;;;;5032296;28;19925;-58
2021/10/26 00:51:28;;;;;;;;;;;;;;;;;;5031828;28;19928;-60
2021/10/26 00:53:55;;;;;;;;;;;;;;;;;;5027532;28;19925;-59
2021/10/26 00:56:22;;;;;;;;;;;;;;;;;;5029374;28;19925;-60
2021/10/26 00:58:49;;;;;;;;;;;;;;;;;;5024498;28;19940;-59
2021/10/26 01:01:16;;;;;;;;;;;;;;;;;;5034179;28;19925;-59
2021/10/26 01:03:43;;;;;;;;;;;;;;;;;;5033131;28;19932;-59
2021/10/26 01:06:10;;;;;;;;;;;;;;;;;;5028500;28;19925;-59
2021/10/26 01:08:37;;;;;;;;;;;;;;;;;;5027221;28;19925;-60
2021/10/26 01:11:04;;;;;;;;;;;;;;;;;;5030825;28;20227;-60
2021/10/26 01:13:31;;;;;;;;;;;;;;;;;;5034384;28;20401;-61
2021/10/26 01:15:58;;;;;;;;;;;;;;;;;;5026650;28;19932;-61
2021/10/26 01:18:25;;;;;;;;;;;;;;;;;;5030931;28;19929;-61
2021/10/26 01:20:52;;;;;;;;;;;;;;;;;;5024363;28;19929;-61
2021/10/26 01:23:19;;;;;;;;;;;;;;;;;;5032582;28;19935;-61
2021/10/26 01:25:46;;;;;;;;;;;;;;;;;;5027984;28;20012;-60
2021/10/26 01:28:13;;;;;;;;;;;;;;;;;;5031635;28;19948;-61
2021/10/26 01:30:40;;;;;;;;;;;;;;;;;;5028392;28;19925;-60
2021/10/26 01:33:07;;;;;;;;;;;;;;;;;;5037704;28;19924;-59
2021/10/26 01:35:34;;;;;;;;;;;;;;;;;;5030638;28;19925;-60
2021/10/26 01:38:01;;;;;;;;;;;;;;;;;;5032633;28;20324;-61
2021/10/26 01:40:28;;;;;;;;;;;;;;;;;;5030702;28;19972;-62
2021/10/26 01:42:54;;;;;;;;;;;;;;;;;;5039282;28;20316;-61
2021/10/26 01:45:21;;;;;;;;;;;;;;;;;;5038279;28;19933;-61
2021/10/26 01:47:48;;;;;;;;;;;;;;;;;;5030923;28;19932;-59
2021/10/26 01:50:15;;;;;;;;;;;;;;;;;;5029599;28;20310;-61
2021/10/26 01:52:42;;;;;;;;;;;;;;;;;;5034857;28;19932;-60
2021/10/26 01:55:09;;;;;;;;;;;;;;;;;;5036218;28;19925;-61
2021/10/26 01:57:36;;;;;;;;;;;;;;;;;;5039443;28;20042;-61
2021/10/26 02:00:05;;;;;;;;;;;;;;;;;;5036863;28;19926;-61
2021/10/26 02:02:31;;;;;;;;;;;;;;;;;;5035311;28;20011;-61
2021/10/26 02:04:58;;;;;;;;;;;;;;;;;;5031663;28;19948;-61
2021/10/26 02:07:25;;;;;;;;;;;;;;;;;;5040903;28;19929;-60
2021/10/26 02:09:52;;;;;;;;;;;;;;;;;;5036014;28;19925;-61
2021/10/26 02:12:20;;;;;;;;;;;;;;;;;;5028152;28;19971;-61
2021/10/26 02:14:47;;;;;;;;;;;;;;;;;;5033422;28;19925;-60
2021/10/26 02:17:14;;;;;;;;;;;;;;;;;;5033431;28;20297;-61
2021/10/26 02:19:40;;;;;;;;;;;;;;;;;;5040911;28;19925;-60
2021/10/26 02:22:07;;;;;;;;;;;;;;;;;;5029832;28;19925;-62
2021/10/26 02:24:34;;;;;;;;;;;;;;;;;;5035792;28;20262;-61
2021/10/26 02:27:01;;;;;;;;;;;;;;;;;;5034922;28;19932;-62
2021/10/26 02:29:28;;;;;;;;;;;;;;;;;;5031692;28;19925;-61
2021/10/26 02:31:55;;;;;;;;;;;;;;;;;;5022279;28;20424;-62
2021/10/26 02:34:22;;;;;;;;;;;;;;;;;;5023831;28;19933;-59
2021/10/26 02:36:49;;;;;;;;;;;;;;;;;;5037118;28;19947;-61
2021/10/26 02:39:16;;;;;;;;;;;;;;;;;;5032179;28;19926;-59
2021/10/26 02:41:43;;;;;;;;;;;;;;;;;;5032221;28;19944;-60
2021/10/26 02:44:10;;;;;;;;;;;;;;;;;;5029545;28;19925;-57
2021/10/26 02:46:37;;;;;;;;;;;;;;;;;;5036151;28;19932;-58
2021/10/26 02:49:04;;;;;;;;;;;;;;;;;;5035603;28;20300;-60
2021/10/26 02:51:31;;;;;;;;;;;;;;;;;;5037136;28;19924;-60
2021/10/26 02:53:59;;;;;;;;;;;;;;;;;;5033507;28;19925;-56
2021/10/26 02:56:26;;;;;;;;;;;;;;;;;;5036579;28;19925;-58
2021/10/26 02:58:53;;;;;;;;;;;;;;;;;;5037620;28;19932;-59
2021/10/26 03:01:20;;;;;;;;;;;;;;;;;;5038212;28;20011;-60
2021/10/26 03:03:47;;;;;;;;;;;;;;;;;;5032447;28;19943;-60
2021/10/26 03:06:14;;;;;;;;;;;;;;;;;;5032868;28;20352;-60
2021/10/26 03:08:41;;;;;;;;;;;;;;;;;;5029804;28;19925;-59
2021/10/26 03:11:08;;;;;;;;;;;;;;;;;;5028812;28;19932;-60
2021/10/26 03:13:35;;;;;;;;;;;;;;;;;;5030726;28;19933;-61
2021/10/26 03:16:02;;;;;;;;;;;;;;;;;;5034244;28;20487;-61
2021/10/26 03:18:29;;;;;;;;;;;;;;;;;;5032790;28;19948;-60
2021/10/26 03:20:57;;;;;;;;;;;;;;;;;;5039711;28;19929;-61
2021/10/26 03:23:24;;;;;;;;;;;;;;;;;;5033676;28;20456;-59
2021/10/26 03:25:51;;;;;;;;;;;;;;;;;;5031031;28;20309;-61
2021/10/26 03:28:19;;;;;;;;;;;;;;;;;;5028581;28;19925;-61
2021/10/26 03:30:46;;;;;;;;;;;;;;;;;;5031881;28;20435;-61
2021/10/26 03:33:13;;;;;;;;;;;;;;;;;;5034841;28;19925;-60
2021/10/26 03:35:40;;;;;;;;;;;;;;;;;;5031526;28;20416;-59
2021/10/26 03:38:07;;;;;;;;;;;;;;;;;;5043901;28;20377;-58
2021/10/26 03:40:34;;;;;;;;;;;;;;;;;;5030473;28;19929;-60
2021/10/26 03:43:00;;;;;;;;;;;;;;;;;;5030991;28;19913;-60
2021/10/26 03:45:27;;;;;;;;;;;;;;;;;;5041205;28;19960;-60
2021/10/26 03:47:54;;;;;;;;;;;;;;;;;;5053155;28;19925;-60
2021/10/26 03:50:21;;;;;;;;;;;;;;;;;;5035737;28;19948;-60
2021/10/26 03:52:48;;;;;;;;;;;;;;;;;;5041737;28;19925;-60
2021/10/26 03:55:15;;;;;;;;;;;;;;;;;;5033151;28;20603;-59
2021/10/26 03:57:42;;;;;;;;;;;;;;;;;;5044072;28;20288;-59
2021/10/26 04:00:09;;;;;;;;;;;;;;;;;;5034842;28;19931;-59
2021/10/26 04:02:39;;;;;;;;;;;;;;;;;;5041673;28;19936;-62
2021/10/26 04:05:14;;;;;;;;;;;;;;;;;;5045351;28;19925;-60
2021/10/26 04:07:45;;;;;;;;;;;;;;;;;;5044217;28;19928;-60
2021/10/26 04:10:15;;;;;;;;;;;;;;;;;;5037661;28;19972;-60
2021/10/26 04:12:42;;;;;;;;;;;;;;;;;;5043508;28;20305;-60
2021/10/26 04:15:09;;;;;;;;;;;;;;;;;;5033865;28;19926;-60
2021/10/26 04:17:36;;;;;;;;;;;;;;;;;;5032677;28;19925;-60
2021/10/26 04:20:03;;;;;;;;;;;;;;;;;;5036599;28;20373;-60
2021/10/26 04:22:30;;;;;;;;;;;;;;;;;;5043294;28;20367;-60
2021/10/26 04:24:57;;;;;;;;;;;;;;;;;;5035430;28;19925;-60
2021/10/26 04:27:25;;;;;;;;;;;;;;;;;;5040245;28;19925;-60
2021/10/26 04:29:54;;;;;;;;;;;;;;;;;;5044530;28;20449;-60
2021/10/26 04:32:21;;;;;;;;;;;;;;;;;;5041967;28;19925;-60
2021/10/26 04:34:49;;;;;;;;;;;;;;;;;;5036257;28;19960;-59
2021/10/26 04:37:15;;;;;;;;;;;;;;;;;;5044472;28;20020;-59
2021/10/26 04:39:42;;;;;;;;;;;;;;;;;;5043173;28;19937;-60
2021/10/26 04:42:09;;;;;;;;;;;;;;;;;;5038976;28;19931;-59
2021/10/26 04:44:36;;;;;;;;;;;;;;;;;;5037874;28;20439;-60
2021/10/26 04:47:03;;;;;;;;;;;;;;;;;;5032477;28;19939;-60
2021/10/26 04:49:30;;;;;;;;;;;;;;;;;;5033872;28;19925;-59
2021/10/26 04:51:59;;;;;;;;;;;;;;;;;;5036907;28;20285;-60
2021/10/26 04:54:26;;;;;;;;;;;;;;;;;;5042955;28;19929;-59
2021/10/26 04:56:53;;;;;;;;;;;;;;;;;;5046530;28;19947;-59
2021/10/26 04:59:20;;;;;;;;;;;;;;;;;;5047279;28;20363;-59
2021/10/26 05:01:46;;;;;;;;;;;;;;;;;;5033488;28;19925;-58
2021/10/26 05:04:13;;;;;;;;;;;;;;;;;;5033194;28;19925;-60
2021/10/26 05:06:40;;;;;;;;;;;;;;;;;;5031030;28;20040;-58
2021/10/26 05:09:07;;;;;;;;;;;;;;;;;;5034348;28;19928;-59
2021/10/26 05:11:34;;;;;;;;;;;;;;;;;;5033052;28;19925;-59
2021/10/26 05:14:01;;;;;;;;;;;;;;;;;;5030932;28;19936;-57
2021/10/26 05:16:28;;;;;;;;;;;;;;;;;;5030545;28;19989;-59
2021/10/26 05:18:58;;;;;;;;;;;;;;;;;;5033323;28;19929;-59
2021/10/26 05:21:25;;;;;;;;;;;;;;;;;;5032389;28;19964;-59
2021/10/26 05:23:52;;;;;;;;;;;;;;;;;;5032759;28;19931;-57
2021/10/26 05:26:19;;;;;;;;;;;;;;;;;;5036754;28;19952;-58
2021/10/26 05:28:47;;;;;;;;;;;;;;;;;;5033191;28;20308;-60
2021/10/26 05:31:14;;;;;;;;;;;;;;;;;;5027470;28;19954;-60
2021/10/26 05:33:41;;;;;;;;;;;;;;;;;;5039269;28;19925;-60
2021/10/26 05:36:08;;;;;;;;;;;;;;;;;;5045802;28;19925;-59
2021/10/26 05:38:35;;;;;;;;;;;;;;;;;;5041563;28;19926;-59
2021/10/26 05:41:02;;;;;;;;;;;;;;;;;;5036147;28;19957;-60
2021/10/26 05:43:29;;;;;;;;;;;;;;;;;;5036965;28;19931;-60
2021/10/26 05:45:56;;;;;;;;;;;;;;;;;;5041707;28;19952;-60
2021/10/26 05:48:23;;;;;;;;;;;;;;;;;;5036679;28;20056;-60
2021/10/26 05:50:50;;;;;;;;;;;;;;;;;;5041859;28;20048;-61
2021/10/26 05:53:17;;;;;;;;;;;;;;;;;;5035287;28;19925;-60
2021/10/26 05:55:44;;;;;;;;;;;;;;;;;;5031983;28;19984;-60
2021/10/26 05:58:12;;;;;;;;;;;;;;;;;;5034084;28;20036;-60
2021/10/26 06:00:39;;;;;;;;;;;;;;;;;;5034359;28;19925;-60
2021/10/26 06:03:06;;;;;;;;;;;;;;;;;;5033511;28;19925;-60
2021/10/26 06:05:33;;;;;;;;;;;;;;;;;;5025411;28;19933;-60
2021/10/26 06:08:00;;;;;;;;;;;;;;;;;;5038949;28;19936;-61
2021/10/26 06:10:28;;;;;;;;;;;;;;;;;;5033135;28;19925;-59
2021/10/26 06:12:57;;;;;;;;;;;;;;;;;;5031784;28;19933;-60
2021/10/26 06:15:24;;;;;;;;;;;;;;;;;;5035253;28;19941;-60
2021/10/26 06:17:51;;;;;;;;;;;;;;;;;;5036960;28;19931;-59
2021/10/26 06:20:19;;;;;;;;;;;;;;;;;;5037346;28;19929;-61
2021/10/26 06:22:46;;;;;;;;;;;;;;;;;;5035567;28;20358;-60
2021/10/26 06:25:13;;;;;;;;;;;;;;;;;;5035961;28;19932;-60
2021/10/26 06:27:40;;;;;;;;;;;;;;;;;;5044629;28;19929;-61
2021/10/26 06:30:07;;;;;;;;;;;;;;;;;;5037476;28;20024;-60
2021/10/26 06:32:33;;;;;;;;;;;;;;;;;;5037629;28;19925;-60
2021/10/26 06:35:01;;;;;;;;;;;;;;;;;;5040849;28;19929;-59
2021/10/26 06:37:29;;;;;;;;;;;;;;;;;;5042981;28;19952;-61
2021/10/26 06:39:57;;;;;;;;;;;;;;;;;;5041967;28;20027;-60
2021/10/26 06:42:24;;;;;;;;;;;;;;;;;;5036695;28;20349;-60
2021/10/26 06:44:51;;;;;;;;;;;;;;;;;;5039823;28;20289;-61
2021/10/26 06:47:19;;;;;;;;;;;;;;;;;;5037290;28;19941;-60
2021/10/26 06:49:46;;;;;;;;;;;;;;;;;;5034342;28;19929;-61
2021/10/26 06:52:13;;;;;;;;;;;;;;;;;;5041949;28;19955;-60
2021/10/26 06:54:40;;;;;;;;;;;;;;;;;;5036980;28;19935;-60
2021/10/26 06:57:07;;;;;;;;;;;;;;;;;;5032100;28;19925;-61
2021/10/26 06:59:35;;;;;;;;;;;;;;;;;;5038240;28;20000;-60
2021/10/26 07:02:03;;;;;;;;;;;;;;;;;;5031154;28;20145;-60
2021/10/26 07:04:30;;;;;;;;;;;;;;;;;;5030000;28;20044;-60
2021/10/26 07:06:58;;;;;;;;;;;;;;;;;;5030940;28;20039;-61
2021/10/26 07:09:25;;;;;;;;;;;;;;;;;;5034126;28;19932;-60
2021/10/26 07:11:52;;;;;;;;;;;;;;;;;;5039095;28;19932;-61
2021/10/26 07:14:19;;;;;;;;;;;;;;;;;;5031883;28;20449;-60
2021/10/26 07:16:46;;;;;;;;;;;;;;;;;;5033000;28;19940;-60
2021/10/26 07:19:13;;;;;;;;;;;;;;;;;;5036180;28;19933;-60
2021/10/26 07:21:42;;;;;;;;;;;;;;;;;;5035984;28;20296;-60
2021/10/26 07:24:10;;;;;;;;;;;;;;;;;;5035029;28;19925;-59
2021/10/26 07:26:37;;;;;;;;;;;;;;;;;;5038673;28;20011;-59
2021/10/26 07:29:04;;;;;;;;;;;;;;;;;;5038009;28;20003;-59
2021/10/26 07:31:31;;;;;;;;;;;;;;;;;;5031102;28;19932;-60
2021/10/26 07:33:59;;;;;;;;;;;;;;;;;;5032653;28;19992;-58
2021/10/26 07:36:30;;;;;;;;;;;;;;;;;;5039354;28;19929;-59
2021/10/26 07:39:00;;;;;;;;;;;;;;;;;;5039951;28;19929;-59
2021/10/26 07:41:27;;;;;;;;;;;;;;;;;;5035443;28;20452;-59
2021/10/26 07:43:54;;;;;;;;;;;;;;;;;;5029119;28;19932;-59
2021/10/26 07:46:21;;;;;;;;;;;;;;;;;;5034742;28;19988;-59
2021/10/26 07:48:50;;;;;;;;;;;;;;;;;;5034668;28;19957;-59
2021/10/26 07:51:17;;;;;;;;;;;;;;;;;;5031231;28;19929;-60
2021/10/26 07:53:44;;;;;;;;;;;;;;;;;;5033374;28;19929;-60
2021/10/26 07:56:11;;;;;;;;;;;;;;;;;;5036321;28;20316;-59
2021/10/26 07:58:40;;;;;;;;;;;;;;;;;;5032059;28;20005;-60
2021/10/26 08:01:07;;;;;;;;;;;;;;;;;;5034739;28;20525;-60
2021/10/26 08:03:34;;;;;;;;;;;;;;;;;;5034256;28;19925;-60
2021/10/26 08:06:01;;;;;;;;;;;;;;;;;;5024956;28;19956;-59
2021/10/26 08:08:28;;;;;;;;;;;;;;;;;;5032786;28;20020;-60
2021/10/26 08:10:55;;;;;;;;;;;;;;;;;;5030271;28;19952;-60
2021/10/26 08:13:22;;;;;;;;;;;;;;;;;;5031546;28;19925;-60
2021/10/26 08:15:50;;;;;;;;;;;;;;;;;;5038477;28;19940;-60
2021/10/26 08:18:17;;;;;;;;;;;;;;;;;;5034135;28;20332;-60
2021/10/26 08:20:46;;;;;;;;;;;;;;;;;;5043473;28;19967;-60
2021/10/26 08:23:13;;;;;;;;;;;;;;;;;;5035357;28;19926;-60
2021/10/26 08:25:44;;;;;;;;;;;;;;;;;;5043013;28;19928;-60
2021/10/26 08:28:14;;;;;;;;;;;;;;;;;;5042168;28;20120;-60
2021/10/26 08:30:46;;;;;;;;;;;;;;;;;;5037728;28;20004;-61
2021/10/26 08:33:20;;;;;;;;;;;;;;;;;;5029467;28;19925;-61
2021/10/26 08:35:47;;;;;;;;;;;;;;;;;;5030388;28;19929;-61
2021/10/26 08:38:14;;;;;;;;;;;;;;;;;;5035311;28;19925;-60
2021/10/26 08:40:46;;;;;;;;;;;;;;;;;;5036294;28;19926;-60
2021/10/26 08:43:13;;;;;;;;;;;;;;;;;;5038835;28;19925;-60
2021/10/26 08:45:44;;;;;;;;;;;;;;;;;;5032148;28;19932;-60
2021/10/26 08:48:14;;;;;;;;;;;;;;;;;;5034721;28;19937;-60
2021/10/26 08:50:42;;;;;;;;;;;;;;;;;;5028569;28;19929;-59
2021/10/26 08:53:09;;;;;;;;;;;;;;;;;;5033230;28;19925;-59
2021/10/26 08:55:38;;;;;;;;;;;;;;;;;;5036446;28;19929;-59
2021/10/26 08:58:06;;;;;;;;;;;;;;;;;;5043828;28;19985;-60
2021/10/26 09:00:33;;;;;;;;;;;;;;;;;;5030716;28;19925;-60
2021/10/26 09:03:01;;;;;;;;;;;;;;;;;;5030291;28;20286;-60
2021/10/26 09:05:30;;;;;;;;;;;;;;;;;;5028628;28;20389;-60
2021/10/26 09:07:57;;;;;;;;;;;;;;;;;;5027126;28;19929;-60
2021/10/26 09:10:24;;;;;;;;;;;;;;;;;;5040514;28;20005;-61
2021/10/26 09:18:28;;;;;;;;;;;;;;;;;;5035698;28;19939;-60
2021/10/26 09:20:55;;;;;;;;;;;;;;;;;;5039296;28;20304;-60
2021/10/26 09:23:27;;;;;;;;;;;;;;;;;;5041486;28;19931;-61
2021/10/26 09:25:54;;;;;;;;;;;;;;;;;;5034843;28;19947;-60
2021/10/26 09:28:20;;;;;;;;;;;;;;;;;;5038157;28;20374;-61
2021/10/26 09:30:47;;;;;;;;;;;;;;;;;;5033695;28;19979;-60
2021/10/26 09:33:14;;;;;;;;;;;;;;;;;;5036979;28;19925;-60
2021/10/26 09:35:41;;;;;;;;;;;;;;;;;;5038314;28;20472;-61
2021/10/26 09:38:08;;;;;;;;;;;;;;;;;;5041441;28;19984;-60
2021/10/26 09:40:35;;;;;;;;;;;;;;;;;;5038861;28;20032;-60
2021/10/26 09:43:07;;;;;;;;;;;;;;;;;;5053712;22;19921;-71
2021/10/26 09:45:34;;;;;;;;;;;;;;;;;;5059815;28;20321;-71
2021/10/26 09:48:02;;;;;;;;;;;;;;;;;;5061924;28;21537;-70
2021/10/26 09:50:30;;;;;;;;;;;;;;;;;;5066550;28;19924;-71
2021/10/26 09:52:57;;;;;;;;;;;;;;;;;;5067706;28;19928;-71
2021/10/26 09:55:27;;;;;;;;;;;;;;;;;;5064210;28;19931;-71
2021/10/26 09:57:56;;;;;;;;;;;;;;;;;;5062195;28;19978;-71
2021/10/26 10:00:26;;;;;;;;;;;;;;;;;;5062197;28;19931;-71
2021/10/26 10:02:54;;;;;;;;;;;;;;;;;;5065919;28;20505;-72
2021/10/26 10:05:21;;;;;;;;;;;;;;;;;;5063571;28;20403;-71
2021/10/26 10:07:48;;;;;;;;;;;;;;;;;;5063481;28;19928;-71
2021/10/26 10:10:15;;;;;;;;;;;;;;;;;;5064193;28;20015;-72
2021/10/26 10:12:44;;;;;;;;;;;;;;;;;;5074008;28;20277;-70
2021/10/26 10:15:11;;;;;;;;;;;;;;;;;;5069193;28;19940;-71
2021/10/26 10:17:40;;;;;;;;;;;;;;;;;;5068743;28;19925;-72
2021/10/26 10:20:07;;;;;;;;;;;;;;;;;;5073676;28;19967;-72
2021/10/26 10:22:34;;;;;;;;;;;;;;;;;;5068116;28;19924;-71
2021/10/26 10:25:01;;;;;;;;;;;;;;;;;;5067746;28;19924;-72
2021/10/26 10:27:28;;;;;;;;;;;;;;;;;;5068464;28;20308;-70
2021/10/26 10:29:55;;;;;;;;;;;;;;;;;;5071296;28;19930;-72
2021/10/26 10:32:22;;;;;;;;;;;;;;;;;;5067278;28;20353;-70
2021/10/26 10:34:49;;;;;;;;;;;;;;;;;;5066155;28;19929;-71
2021/10/26 10:37:16;;;;;;;;;;;;;;;;;;5066012;28;20026;-70
2021/10/26 10:39:45;;;;;;;;;;;;;;;;;;5069795;28;19924;-72
2021/10/26 10:42:12;;;;;;;;;;;;;;;;;;5065858;28;19924;-70
2021/10/26 10:44:40;;;;;;;;;;;;;;;;;;5062146;28;20379;-70
2021/10/26 10:47:10;;;;;;;;;;;;;;;;;;5068771;28;19963;-71
2021/10/26 10:49:37;;;;;;;;;;;;;;;;;;5065611;28;19925;-71
2021/10/26 10:52:05;;;;;;;;;;;;;;;;;;5067774;28;19925;-70
2021/10/26 10:54:32;;;;;;;;;;;;;;;;;;5065408;28;19925;-69
2021/10/26 10:56:59;;;;;;;;;;;;;;;;;;5063732;28;19936;-70
2021/10/26 10:59:26;;;;;;;;;;;;;;;;;;5067637;28;19928;-71
2021/10/26 11:01:52;;;;;;;;;;;;;;;;;;5065643;28;19935;-72
2021/10/26 11:04:19;;;;;;;;;;;;;;;;;;5067749;28;19929;-70
2021/10/26 11:06:47;;;;;;;;;;;;;;;;;;5067765;28;19925;-70
2021/10/26 11:09:14;;;;;;;;;;;;;;;;;;5062434;28;19932;-71
2021/10/26 11:11:41;;;;;;;;;;;;;;;;;;5062421;28;19924;-70
2021/10/26 11:14:08;;;;;;;;;;;;;;;;;;5068033;28;19924;-70
2021/10/26 11:16:35;;;;;;;;;;;;;;;;;;5065005;28;19925;-71
2021/10/26 11:19:02;;;;;;;;;;;;;;;;;;5064857;28;19933;-69
2021/10/26 11:21:29;;;;;;;;;;;;;;;;;;5063345;28;19934;-70
2021/10/26 11:23:56;;;;;;;;;;;;;;;;;;5069671;28;20011;-73
2021/10/26 11:26:23;;;;;;;;;;;;;;;;;;5069759;28;20277;-71
2021/10/26 11:28:50;;;;;;;;;;;;;;;;;;5063515;28;20425;-71
2021/10/26 11:31:23;;;;;;;;;;;;;;;;;;5066188;28;19924;-70
2021/10/26 11:33:50;;;;;;;;;;;;;;;;;;5063960;28;19924;-69
2021/10/26 11:36:16;;;;;;;;;;;;;;;;;;5059190;28;20023;-70
2021/10/26 11:38:44;;;;;;;;;;;;;;;;;;5064613;28;20036;-70
2021/10/26 11:41:11;;;;;;;;;;;;;;;;;;5068298;28;19933;-69
2021/10/26 11:43:39;;;;;;;;;;;;;;;;;;5061164;28;20011;-70
2021/10/26 11:46:06;;;;;;;;;;;;;;;;;;5064025;28;19931;-70
2021/10/26 11:48:33;;;;;;;;;;;;;;;;;;5062546;28;20307;-70
2021/10/26 11:51:00;;;;;;;;;;;;;;;;;;5072044;28;19925;-69
2021/10/26 11:53:28;;;;;;;;;;;;;;;;;;5087214;28;19932;-72
2021/10/26 11:55:55;;;;;;;;;;;;;;;;;;5070149;28;19925;-70
2021/10/26 11:58:22;;;;;;;;;;;;;;;;;;5067655;28;20452;-71
2021/10/26 12:00:51;;;;;;;;;;;;;;;;;;5067092;28;20031;-71
2021/10/26 12:03:18;;;;;;;;;;;;;;;;;;5063571;28;20336;-70
2021/10/26 12:05:46;;;;;;;;;;;;;;;;;;5067501;28;19929;-70
2021/10/26 12:08:12;;;;;;;;;;;;;;;;;;5066001;28;19936;-70
2021/10/26 12:10:39;;;;;;;;;;;;;;;;;;5057273;28;20035;-71
2021/10/26 12:13:07;;;;;;;;;;;;;;;;;;5065549;28;20039;-72
2021/10/26 12:15:34;;;;;;;;;;;;;;;;;;5064296;28;19984;-70
2021/10/26 12:18:06;;;;;;;;;;;;;;;;;;5065114;28;19954;-71
2021/10/26 12:20:33;;;;;;;;;;;;;;;;;;5066978;28;21120;-69
2021/10/26 12:23:00;;;;;;;;;;;;;;;;;;5068493;28;20019;-70
2021/10/26 12:25:28;;;;;;;;;;;;;;;;;;5065604;28;19924;-73
2021/10/26 12:27:55;;;;;;;;;;;;;;;;;;5064648;28;19931;-70
2021/10/26 12:30:22;;;;;;;;;;;;;;;;;;5065257;28;19932;-70
2021/10/26 12:32:49;;;;;;;;;;;;;;;;;;5068507;28;19928;-70
2021/10/26 12:35:16;;;;;;;;;;;;;;;;;;5067243;28;19932;-71
2021/10/26 12:37:43;;;;;;;;;;;;;;;;;;5065646;28;19935;-70
2021/10/26 12:40:10;;;;;;;;;;;;;;;;;;5063922;28;19924;-71
2021/10/26 12:42:37;;;;;;;;;;;;;;;;;;5058703;28;19951;-71
2021/10/26 12:45:04;;;;;;;;;;;;;;;;;;5066068;28;19925;-72
2021/10/26 12:47:34;;;;;;;;;;;;;;;;;;5067302;28;20258;-70
2021/10/26 12:50:02;;;;;;;;;;;;;;;;;;5068123;28;19924;-70
2021/10/26 12:52:29;;;;;;;;;;;;;;;;;;5066455;28;19932;-71
2021/10/26 12:54:58;;;;;;;;;;;;;;;;;;5065861;28;20245;-70
2021/10/26 12:57:25;;;;;;;;;;;;;;;;;;5061788;28;19943;-70
2021/10/26 12:59:52;;;;;;;;;;;;;;;;;;5064771;28;20323;-70
2021/10/26 13:02:19;;;;;;;;;;;;;;;;;;5066866;28;19928;-70
2021/10/26 13:04:46;;;;;;;;;;;;;;;;;;5066816;28;19924;-70
2021/10/26 13:07:14;;;;;;;;;;;;;;;;;;5070607;28;19990;-69
2021/10/26 13:09:42;;;;;;;;;;;;;;;;;;5065683;28;19924;-72
2021/10/26 13:12:09;;;;;;;;;;;;;;;;;;5059432;28;19950;-71
2021/10/26 13:14:37;;;;;;;;;;;;;;;;;;5066794;28;19936;-69
2021/10/26 13:17:04;;;;;;;;;;;;;;;;;;5066560;28;20457;-70
2021/10/26 13:19:31;;;;;;;;;;;;;;;;;;5067772;28;19925;-69
2021/10/26 13:21:58;;;;;;;;;;;;;;;;;;5064722;28;19925;-73
2021/10/26 13:24:25;;;;;;;;;;;;;;;;;;5068426;28;20052;-70
2021/10/26 13:26:52;;;;;;;;;;;;;;;;;;5066287;28;19968;-70
2021/10/26 13:29:19;;;;;;;;;;;;;;;;;;5066514;28;20388;-70
2021/10/26 13:31:46;;;;;;;;;;;;;;;;;;5065458;28;20456;-70
2021/10/26 13:34:13;;;;;;;;;;;;;;;;;;5064652;28;19924;-71
2021/10/26 13:36:40;;;;;;;;;;;;;;;;;;5066842;28;19924;-70
2021/10/26 13:39:07;;;;;;;;;;;;;;;;;;5068731;28;20356;-71
2021/10/26 13:41:34;;;;;;;;;;;;;;;;;;5065066;28;20277;-70
2021/10/26 13:44:01;;;;;;;;;;;;;;;;;;5067838;28;19925;-70
2021/10/26 13:46:28;;;;;;;;;;;;;;;;;;5069420;28;20011;-70
2021/10/26 13:48:55;;;;;;;;;;;;;;;;;;5067663;28;19925;-71
2021/10/26 13:51:22;;;;;;;;;;;;;;;;;;5069486;28;19932;-71
2021/10/26 13:53:50;;;;;;;;;;;;;;;;;;5067999;28;20350;-71
2021/10/26 13:56:17;;;;;;;;;;;;;;;;;;5069259;28;19925;-71
2021/10/26 13:58:44;;;;;;;;;;;;;;;;;;5067971;28;20406;-70
2021/10/26 14:01:13;;;;;;;;;;;;;;;;;;5065880;28;19932;-72
2021/10/26 14:03:40;;;;;;;;;;;;;;;;;;5058768;28;19990;-70
2021/10/26 14:06:07;;;;;;;;;;;;;;;;;;5065649;28;20011;-72
2021/10/26 14:08:34;;;;;;;;;;;;;;;;;;5064351;28;20019;-71
2021/10/26 14:11:03;;;;;;;;;;;;;;;;;;5066454;28;19972;-72
2021/10/26 14:13:30;;;;;;;;;;;;;;;;;;5059052;28;20350;-71
2021/10/26 14:15:57;;;;;;;;;;;;;;;;;;5068763;28;20420;-70
2021/10/26 14:18:24;;;;;;;;;;;;;;;;;;5061770;28;19933;-71
2021/10/26 14:20:54;;;;;;;;;;;;;;;;;;5066895;28;19935;-70
2021/10/26 14:23:22;;;;;;;;;;;;;;;;;;5061329;28;20196;-70
2021/10/26 14:25:51;;;;;;;;;;;;;;;;;;5059267;28;19928;-70
2021/10/26 14:28:19;;;;;;;;;;;;;;;;;;5061405;28;20011;-69
2021/10/26 14:30:46;;;;;;;;;;;;;;;;;;5065547;28;19935;-73
2021/10/26 14:33:14;;;;;;;;;;;;;;;;;;5065115;28;20278;-70
2021/10/26 14:35:43;;;;;;;;;;;;;;;;;;5065275;28;20282;-71
2021/10/26 14:38:13;;;;;;;;;;;;;;;;;;5068808;28;20019;-72
2021/10/26 14:54:23;;;;;;;;;;;;;;;;;;5068345;28;19923;-72
2021/10/26 14:56:50;;;;;;;;;;;;;;;;;;5071329;28;20281;-72
2021/10/26 14:59:17;;;;;;;;;;;;;;;;;;5072496;28;19924;-72
2021/10/26 15:01:44;;;;;;;;;;;;;;;;;;5064404;28;19925;-72
2021/10/26 15:04:11;;;;;;;;;;;;;;;;;;5072770;28;19939;-71
2021/10/26 15:06:38;;;;;;;;;;;;;;;;;;5067078;28;19931;-73
2021/10/26 15:09:09;;;;;;;;;;;;;;;;;;5073049;28;20347;-72
2021/10/26 15:11:38;;;;;;;;;;;;;;;;;;5069480;28;20381;-72
2021/10/26 15:14:07;;;;;;;;;;;;;;;;;;5065725;28;19924;-73
2021/10/26 15:16:35;;;;;;;;;;;;;;;;;;5070473;28;19931;-72
2021/10/26 15:19:04;;;;;;;;;;;;;;;;;;5072596;28;19947;-71
2021/10/26 15:21:36;;;;;;;;;;;;;;;;;;5072285;28;19924;-73
2021/10/26 15:35:01;;;;;;;;;;;;;;;;;;5070261;28;19918;-72
2021/10/26 15:37:28;;;;;;;;;;;;;;;;;;5070657;28;19931;-72
2021/10/26 15:39:55;;;;;;;;;;;;;;;;;;5068355;28;19924;-73
2021/10/26 15:42:22;;;;;;;;;;;;;;;;;;5070390;28;19935;-72
2021/10/26 15:44:49;;;;;;;;;;;;;;;;;;5068186;28;19935;-73
2021/10/26 15:47:16;;;;;;;;;;;;;;;;;;5065608;28;19970;-73
2021/10/26 15:49:43;;;;;;;;;;;;;;;;;;5067839;28;19980;-73
2021/10/26 15:52:10;;;;;;;;;;;;;;;;;;5065868;28;19928;-72
2021/10/26 15:54:37;;;;;;;;;;;;;;;;;;5068044;28;19939;-73
2021/10/26 15:57:04;;;;;;;;;;;;;;;;;;5066143;28;19935;-73
2021/10/26 15:59:31;;;;;;;;;;;;;;;;;;5059317;28;19935;-72
2021/10/26 16:01:59;;;;;;;;;;;;;;;;;;5067247;28;19946;-71
2021/10/26 16:04:26;;;;;;;;;;;;;;;;;;5069211;28;20517;-71
2021/10/26 16:06:53;;;;;;;;;;;;;;;;;;5068848;28;19924;-71
2021/10/26 16:09:23;;;;;;;;;;;;;;;;;;5057954;28;19967;-72
2021/10/26 16:11:54;;;;;;;;;;;;;;;;;;5066402;28;19925;-72
2021/10/26 16:14:21;;;;;;;;;;;;;;;;;;5066080;28;19924;-72
2021/10/26 16:16:48;;;;;;;;;;;;;;;;;;5064469;28;19994;-73
2021/10/26 16:19:14;;;;;;;;;;;;;;;;;;5070135;28;19931;-74
2021/10/26 16:21:42;;;;;;;;;;;;;;;;;;5071530;28;19931;-72
2021/10/26 16:24:08;;;;;;;;;;;;;;;;;;5064548;28;19931;-73
2021/10/26 16:26:38;;;;;;;;;;;;;;;;;;5066418;28;20016;-73
2021/10/26 16:29:05;;;;;;;;;;;;;;;;;;5064773;28;19937;-74
2021/10/26 16:31:32;;;;;;;;;;;;;;;;;;5067442;28;19928;-73
2021/10/26 16:34:00;;;;;;;;;;;;;;;;;;5071546;28;19928;-74
2021/10/26 16:36:29;;;;;;;;;;;;;;;;;;5068468;28;19951;-74
2021/10/26 16:38:56;;;;;;;;;;;;;;;;;;5066055;28;19932;-73
2021/10/26 16:41:25;;;;;;;;;;;;;;;;;;5067966;28;20042;-72
2021/10/26 16:44:02;;;;;;;;;;;;;;;;;;5065997;28;20015;-72
2021/10/26 16:46:42;;;;;;;;;;;;;;;;;;5062600;28;19964;-71
2021/10/26 16:49:09;;;;;;;;;;;;;;;;;;5063935;28;19928;-72
2021/10/26 16:51:36;;;;;;;;;;;;;;;;;;5066668;28;19932;-72
2021/10/26 16:54:03;;;;;;;;;;;;;;;;;;5063251;28;19947;-73
2021/10/26 16:56:30;;;;;;;;;;;;;;;;;;5067765;28;20015;-72
2021/10/26 16:58:57;;;;;;;;;;;;;;;;;;5066206;28;19924;-73
2021/10/26 17:01:27;;;;;;;;;;;;;;;;;;5063827;28;19929;-72
2021/10/26 17:03:54;;;;;;;;;;;;;;;;;;5063126;28;19929;-73
2021/10/26 17:06:21;;;;;;;;;;;;;;;;;;5071161;28;19932;-73
2021/10/26 17:08:48;;;;;;;;;;;;;;;;;;5067533;28;20015;-72
2021/10/26 17:11:15;;;;;;;;;;;;;;;;;;5069962;28;19951;-72
2021/10/26 17:13:42;;;;;;;;;;;;;;;;;;5069506;28;20222;-72
2021/10/26 17:16:09;;;;;;;;;;;;;;;;;;5079700;28;20023;-72